Time;durP1;ratioP1;P1;durP2;ratioP2;P2;SDS_P1;SDS_P2;PMS_P1;PMS_P2;Temp;Humidity;BMP_temperature;BMP_pressure;BME280_temperature;BME280_humidity;BME280_pressure;Samples;Min_cycle;Max_cycle;Signal;HPM_P1;HPM_P2
2021/04/24 00:01:45;;;;;;;6.15;5.47;;;15.80;66.60;;;;;;5030596;28;20499;-75
2021/04/24 00:04:49;;;;;;;6.82;5.13;;;15.80;66.50;;;;;;5031757;28;20507;-75
2021/04/24 00:07:56;;;;;;;7.40;5.45;;;15.70;66.30;;;;;;5031636;28;20504;-75
2021/04/24 00:11:00;;;;;;;8.70;5.55;;;15.60;66.50;;;;;;5031128;28;20045;-74
2021/04/24 00:14:04;;;;;;;10.40;5.68;;;15.70;66.50;;;;;;5031385;28;20527;-74
2021/04/24 00:17:08;;;;;;;6.88;5.72;;;15.70;66.90;;;;;;5030561;28;20527;-75
2021/04/24 00:20:16;;;;;;;6.28;5.68;;;15.60;67.10;;;;;;5030660;28;20048;-75
2021/04/24 00:23:21;;;;;;;7.10;5.53;;;15.60;67.30;;;;;;5031556;28;20516;-75
2021/04/24 00:26:26;;;;;;;7.13;5.65;;;15.60;67.20;;;;;;5030563;28;20492;-75
2021/04/24 00:29:30;;;;;;;8.50;5.53;;;15.60;67.50;;;;;;5030537;28;20052;-75
2021/04/24 00:32:43;;;;;;;8.18;5.88;;;15.60;68.00;;;;;;5031212;28;20064;-75
2021/04/24 00:35:54;;;;;;;7.18;6.07;;;15.50;67.60;;;;;;5031089;28;20052;-76
2021/04/24 00:38:58;;;;;;;9.40;5.78;;;15.50;67.60;;;;;;5031347;28;20056;-74
2021/04/24 00:42:03;;;;;;;8.13;5.47;;;15.50;67.60;;;;;;5031287;28;20045;-75
2021/04/24 00:45:11;;;;;;;5.97;4.97;;;15.50;67.60;;;;;;5030172;28;20057;-76
2021/04/24 00:48:15;;;;;;;6.95;5.07;;;15.50;67.50;;;;;;5030463;28;20496;-76
2021/04/24 00:51:19;;;;;;;8.35;5.47;;;15.50;67.30;;;;;;5031280;28;20060;-73
2021/04/24 00:54:23;;;;;;;5.53;4.75;;;15.60;67.40;;;;;;5030945;28;20044;-75
2021/04/24 00:57:28;;;;;;;8.57;4.95;;;15.50;67.20;;;;;;5030838;28;20064;-73
2021/04/24 01:00:33;;;;;;;6.68;4.97;;;15.60;67.30;;;;;;5030935;28;20044;-75
2021/04/24 01:03:37;;;;;;;7.50;5.18;;;15.50;67.40;;;;;;5029928;28;20037;-76
2021/04/24 01:06:41;;;;;;;5.28;4.78;;;15.50;67.50;;;;;;5031161;28;20045;-75
2021/04/24 01:09:46;;;;;;;5.32;4.53;;;15.50;66.80;;;;;;5030102;28;20044;-76
2021/04/24 01:12:50;;;;;;;5.80;4.88;;;15.50;67.10;;;;;;5030669;28;20500;-75
2021/04/24 01:15:54;;;;;;;5.93;4.95;;;15.50;67.00;;;;;;5030795;28;20056;-76
2021/04/24 01:18:58;;;;;;;8.07;4.63;;;15.50;67.00;;;;;;5031077;28;20060;-76
2021/04/24 01:22:08;;;;;;;5.45;4.47;;;15.50;67.10;;;;;;5029998;28;20052;-76
2021/04/24 01:25:23;;;;;;;6.20;4.40;;;15.50;67.10;;;;;;5032536;28;20044;-75
2021/04/24 01:28:29;;;;;;;6.60;4.28;;;15.60;66.90;;;;;;5034766;28;20056;-74
2021/04/24 01:31:38;;;;;;;6.38;4.30;;;15.50;66.80;;;;;;5033614;28;20068;-74
2021/04/24 01:34:42;;;;;;;4.70;3.88;;;15.50;67.00;;;;;;5034778;28;20048;-75
2021/04/24 01:37:46;;;;;;;6.68;4.55;;;15.50;66.70;;;;;;5022003;28;20052;-75
2021/04/24 01:40:50;;;;;;;4.78;3.67;;;15.50;66.50;;;;;;5034463;28;20040;-75
2021/04/24 01:43:55;;;;;;;4.60;4.07;;;15.60;65.10;;;;;;5034323;28;20045;-75
2021/04/24 01:46:59;;;;;;;5.60;3.90;;;15.60;65.60;;;;;;5033974;28;20041;-75
2021/04/24 01:50:11;;;;;;;5.65;3.80;;;15.60;66.50;;;;;;5034288;28;20072;-74
2021/04/24 01:53:21;;;;;;;4.47;3.67;;;15.50;65.70;;;;;;5033019;28;20045;-75
2021/04/24 01:56:25;;;;;;;5.53;3.72;;;15.50;66.00;;;;;;5033860;28;20056;-76
2021/04/24 01:59:32;;;;;;;6.50;4.00;;;15.50;65.90;;;;;;5033985;28;20116;-75
2021/04/24 02:02:36;;;;;;;5.68;3.47;;;15.50;65.90;;;;;;5033878;28;20049;-75
2021/04/24 02:05:50;;;;;;;6.55;3.72;;;15.50;65.40;;;;;;5033713;28;20048;-75
2021/04/24 02:08:54;;;;;;;6.30;4.00;;;15.50;65.70;;;;;;5033783;28;20109;-74
2021/04/24 02:12:08;;;;;;;6.05;3.80;;;15.40;66.10;;;;;;5021368;28;20064;-74
2021/04/24 02:15:13;;;;;;;4.20;3.80;;;15.40;66.60;;;;;;5032826;28;20044;-76
2021/04/24 02:18:17;;;;;;;5.07;3.80;;;15.40;66.40;;;;;;5033516;28;20052;-75
2021/04/24 02:21:21;;;;;;;7.45;4.15;;;15.40;66.20;;;;;;5033746;28;20108;-76
2021/04/24 02:24:25;;;;;;;6.05;4.05;;;15.40;65.60;;;;;;5032651;28;20052;-73
2021/04/24 02:27:29;;;;;;;3.85;3.55;;;15.40;65.60;;;;;;5033691;28;20048;-76
2021/04/24 02:30:34;;;;;;;5.40;3.70;;;15.40;65.70;;;;;;5033461;28;20515;-76
2021/04/24 02:33:37;;;;;;;6.30;4.07;;;15.40;65.70;;;;;;5033012;28;20041;-76
2021/04/24 02:36:41;;;;;;;4.45;3.60;;;15.50;65.10;;;;;;5032192;28;20044;-74
2021/04/24 02:39:49;;;;;;;4.40;3.75;;;15.50;64.50;;;;;;5033222;28;20048;-75
2021/04/24 02:42:53;;;;;;;4.72;3.50;;;15.50;64.80;;;;;;5033277;28;20390;-75
2021/04/24 02:45:58;;;;;;;6.88;3.45;;;15.50;63.90;;;;;;5033374;28;20040;-75
2021/04/24 02:49:03;;;;;;;5.03;3.42;;;15.60;63.70;;;;;;5033172;28;20048;-74
2021/04/24 02:52:07;;;;;;;3.97;3.35;;;15.50;63.30;;;;;;5032968;28;20044;-75
2021/04/24 02:55:13;;;;;;;4.95;3.60;;;15.60;63.70;;;;;;5033048;28;20048;-75
2021/04/24 02:58:19;;;;;;;5.82;3.75;;;15.50;62.50;;;;;;5031849;28;20053;-75
2021/04/24 03:01:23;;;;;;;4.88;3.20;;;15.60;62.60;;;;;;5033120;28;20041;-74
2021/04/24 03:04:27;;;;;;;7.25;4.10;;;15.60;62.70;;;;;;5032573;28;20507;-74
2021/04/24 03:07:31;;;;;;;8.85;3.80;;;15.50;62.90;;;;;;5031799;28;20377;-74
2021/04/24 03:10:38;;;;;;;6.07;3.50;;;15.50;63.40;;;;;;5031810;28;20064;-75
2021/04/24 03:13:41;;;;;;;5.47;3.70;;;15.50;63.00;;;;;;5032682;28;20052;-73
2021/04/24 03:16:46;;;;;;;5.30;3.92;;;15.50;62.60;;;;;;5032087;28;20049;-74
2021/04/24 03:19:51;;;;;;;6.10;3.80;;;15.50;62.30;;;;;;5032451;28;20512;-75
2021/04/24 03:22:55;;;;;;;7.65;4.00;;;15.50;63.00;;;;;;5031784;28;20037;-75
2021/04/24 03:25:59;;;;;;;6.20;4.25;;;15.50;62.90;;;;;;5032041;28;20048;-76
2021/04/24 03:29:03;;;;;;;5.43;3.97;;;15.40;63.80;;;;;;5031146;28;20512;-75
2021/04/24 03:32:08;;;;;;;7.78;4.10;;;15.30;63.40;;;;;;5032428;28;20044;-75
2021/04/24 03:35:12;;;;;;;5.93;3.63;;;15.30;63.10;;;;;;5031450;28;20508;-75
2021/04/24 03:38:16;;;;;;;5.05;3.95;;;15.30;63.30;;;;;;5032101;28;20056;-75
2021/04/24 03:41:20;;;;;;;7.68;4.13;;;15.30;63.30;;;;;;5032098;28;20036;-75
2021/04/24 03:44:24;;;;;;;6.65;4.30;;;15.30;63.70;;;;;;5032059;28;20053;-76
2021/04/24 03:47:28;;;;;;;4.85;3.63;;;15.30;63.70;;;;;;5031839;28;20515;-74
2021/04/24 03:50:32;;;;;;;5.35;3.72;;;15.20;63.60;;;;;;5031399;28;20041;-75
2021/04/24 03:53:36;;;;;;;6.93;4.20;;;15.30;63.20;;;;;;5030371;28;20036;-74
2021/04/24 03:56:40;;;;;;;5.10;3.97;;;15.30;63.60;;;;;;5018839;28;20489;-75
2021/04/24 03:59:44;;;;;;;4.60;3.70;;;15.30;63.30;;;;;;5031061;28;20056;-75
2021/04/24 04:03:00;;;;;;;6.78;4.05;;;15.30;63.30;;;;;;5030458;28;20048;-75
2021/04/24 04:06:04;;;;;;;5.55;3.90;;;15.40;62.00;;;;;;5031386;28;20327;-75
2021/04/24 04:09:08;;;;;;;6.75;4.05;;;15.50;62.30;;;;;;5031674;28;20049;-75
2021/04/24 04:12:12;;;;;;;6.72;3.97;;;15.40;62.80;;;;;;5030910;28;20052;-75
2021/04/24 04:15:18;;;;;;;5.45;4.32;;;15.40;63.20;;;;;;5031366;28;20061;-76
2021/04/24 04:18:22;;;;;;;6.53;4.18;;;15.30;64.10;;;;;;5031348;28;20051;-76
2021/04/24 04:21:26;;;;;;;5.43;3.90;;;15.30;64.40;;;;;;5031512;28;20099;-75
2021/04/24 04:24:29;;;;;;;7.05;4.30;;;15.30;64.20;;;;;;5031427;28;20393;-75
2021/04/24 04:27:33;;;;;;;5.03;3.67;;;15.30;63.40;;;;;;5030555;28;20041;-77
2021/04/24 04:30:39;;;;;;;8.10;3.38;;;15.30;62.20;;;;;;5031673;28;20048;-75
2021/04/24 04:33:43;;;;;;;5.50;3.85;;;15.30;61.70;;;;;;5030300;28;20096;-75
2021/04/24 04:36:46;;;;;;;5.20;3.30;;;15.30;61.90;;;;;;5030596;28;20048;-75
2021/04/24 04:39:51;;;;;;;4.57;3.15;;;15.40;61.40;;;;;;5030496;28;20208;-74
2021/04/24 04:42:55;;;;;;;3.38;3.08;;;15.40;61.40;;;;;;5030339;28;20052;-75
2021/04/24 04:45:58;;;;;;;3.78;2.97;;;15.50;61.40;;;;;;5030890;28;20060;-75
2021/04/24 04:49:03;;;;;;;4.30;3.65;;;15.50;61.50;;;;;;5030591;28;20044;-76
2021/04/24 04:52:07;;;;;;;6.43;3.30;;;15.50;62.10;;;;;;5029902;28;20044;-74
2021/04/24 04:55:12;;;;;;;4.03;2.63;;;15.60;61.40;;;;;;5031235;28;20048;-75
2021/04/24 04:58:16;;;;;;;3.85;2.78;;;15.90;60.60;;;;;;5030814;28;20056;-75
2021/04/24 05:01:20;;;;;;;4.88;3.40;;;16.00;59.60;;;;;;5033970;28;20048;-75
2021/04/24 05:04:24;;;;;;;8.18;3.42;;;16.10;57.80;;;;;;5034836;28;20040;-76
2021/04/24 05:07:28;;;;;;;3.38;2.70;;;16.20;57.60;;;;;;5033604;28;20044;-75
2021/04/24 05:10:32;;;;;;;4.43;2.78;;;16.30;57.20;;;;;;5034656;28;20204;-75
2021/04/24 05:13:36;;;;;;;4.63;2.90;;;16.50;56.70;;;;;;5034881;28;20060;-75
2021/04/24 05:16:40;;;;;;;3.75;2.80;;;16.70;56.70;;;;;;5033790;28;20074;-74
2021/04/24 05:19:44;;;;;;;5.45;3.10;;;17.00;55.20;;;;;;5034679;28;20105;-75
2021/04/24 05:22:50;;;;;;;6.55;3.08;;;17.00;54.50;;;;;;5035380;28;20037;-75
2021/04/24 05:25:54;;;;;;;4.90;3.20;;;17.10;54.30;;;;;;5034390;28;20389;-74
2021/04/24 05:28:59;;;;;;;5.13;3.17;;;17.10;54.00;;;;;;5034403;28;20048;-75
2021/04/24 05:32:04;;;;;;;5.15;2.65;;;17.10;53.60;;;;;;5021949;28;20048;-75
2021/04/24 05:35:08;;;;;;;3.88;3.13;;;17.20;53.00;;;;;;5033632;28;20048;-75
2021/04/24 05:38:12;;;;;;;8.75;3.22;;;17.30;53.10;;;;;;5034030;28;20056;-74
2021/04/24 05:41:21;;;;;;;4.95;2.72;;;17.50;53.80;;;;;;5033765;28;20040;-74
2021/04/24 05:44:25;;;;;;;4.97;2.80;;;17.70;52.80;;;;;;5021769;28;20425;-75
2021/04/24 05:47:29;;;;;;;5.43;2.90;;;17.90;51.80;;;;;;5033370;28;20044;-66
2021/04/24 05:50:33;;;;;;;6.80;3.03;;;18.10;52.00;;;;;;5034256;28;20045;-67
2021/04/24 05:53:37;;;;;;;4.55;3.00;;;18.40;52.70;;;;;;5034089;28;20052;-69
2021/04/24 05:56:41;;;;;;;4.75;3.05;;;18.70;51.70;;;;;;5033317;28;20048;-65
2021/04/24 05:59:45;;;;;;;4.35;2.63;;;19.10;50.90;;;;;;5034028;28;20133;-66
2021/04/24 06:02:49;;;;;;;6.53;3.20;;;19.40;49.20;;;;;;5033624;28;20127;-67
2021/04/24 06:05:53;;;;;;;6.75;3.10;;;19.60;49.70;;;;;;5034554;28;20420;-67
2021/04/24 06:08:57;;;;;;;5.82;2.85;;;19.60;48.20;;;;;;5033761;28;20044;-68
2021/04/24 06:12:02;;;;;;;4.63;2.67;;;19.70;48.40;;;;;;5033323;28;20057;-69
2021/04/24 06:15:08;;;;;;;4.90;3.17;;;19.60;46.70;;;;;;5021347;28;20043;-70
2021/04/24 06:18:14;;;;;;;3.75;2.70;;;19.30;48.00;;;;;;5033504;28;20056;-72
2021/04/24 06:21:18;;;;;;;6.10;3.20;;;19.20;48.00;;;;;;5032713;28;20389;-70
2021/04/24 06:24:23;;;;;;;13.50;3.53;;;19.10;47.30;;;;;;5032877;28;20049;-74
2021/04/24 06:27:28;;;;;;;4.05;2.80;;;19.10;47.50;;;;;;5033459;28;20044;-72
2021/04/24 06:30:32;;;;;;;4.47;2.90;;;19.20;48.40;;;;;;5033144;28;20500;-72
2021/04/24 06:33:36;;;;;;;7.45;2.90;;;19.40;48.20;;;;;;5033411;28;20036;-70
2021/04/24 06:36:41;;;;;;;6.53;3.63;;;19.60;46.30;;;;;;5033328;28;20066;-76
2021/04/24 06:39:45;;;;;;;5.25;2.80;;;19.30;46.50;;;;;;5031549;28;20045;-71
2021/04/24 06:42:50;;;;;;;6.82;2.92;;;19.50;47.00;;;;;;5033084;28;20048;-77
2021/04/24 06:45:54;;;;;;;3.85;2.53;;;19.60;46.60;;;;;;5032790;28;20052;-70
2021/04/24 06:48:58;;;;;;;7.07;3.22;;;19.60;46.60;;;;;;5032548;28;20393;-69
2021/04/24 06:52:03;;;;;;;7.88;3.25;;;19.60;46.20;;;;;;5032053;28;20516;-73
2021/04/24 06:55:10;;;;;;;5.80;3.65;;;19.50;46.30;;;;;;5033114;28;20052;-68
2021/04/24 06:58:14;;;;;;;10.05;3.33;;;19.50;47.00;;;;;;5032928;28;20535;-71
2021/04/24 07:01:18;;;;;;;6.00;2.85;;;19.60;46.80;;;;;;5032193;28;20044;-70
2021/04/24 07:04:22;;;;;;;8.30;4.10;;;19.70;46.20;;;;;;5032630;28;20037;-73
2021/04/24 07:07:26;;;;;;;5.78;3.13;;;19.80;46.40;;;;;;5032446;28;20044;-71
2021/04/24 07:10:30;;;;;;;5.03;3.10;;;19.90;46.00;;;;;;5032881;28;20048;-67
2021/04/24 07:13:38;;;;;;;7.97;3.63;;;19.80;46.60;;;;;;5032631;28;20056;-67
2021/04/24 07:16:42;;;;;;;6.07;3.72;;;19.70;46.20;;;;;;5032285;28;20044;-67
2021/04/24 07:19:46;;;;;;;11.00;3.97;;;19.80;46.40;;;;;;5032485;28;20052;-67
2021/04/24 07:22:50;;;;;;;6.13;3.63;;;19.70;46.90;;;;;;5031627;28;20037;-65
2021/04/24 07:25:54;;;;;;;5.80;3.28;;;19.70;46.80;;;;;;5032513;28;20055;-67
2021/04/24 07:28:58;;;;;;;6.20;3.60;;;19.90;47.80;;;;;;5032366;28;20048;-66
2021/04/24 07:32:02;;;;;;;5.70;3.53;;;20.00;46.70;;;;;;5032262;28;20044;-67
2021/04/24 07:35:07;;;;;;;6.63;3.20;;;19.90;47.30;;;;;;5031133;28;20048;-69
2021/04/24 07:38:11;;;;;;;6.20;3.60;;;20.00;46.90;;;;;;5031914;28;20053;-69
2021/04/24 07:41:15;;;;;;;6.00;3.97;;;20.20;46.80;;;;;;5031107;28;20065;-72
2021/04/24 07:44:18;;;;;;;8.25;3.90;;;20.30;46.50;;;;;;5031178;28;20434;-68
2021/04/24 07:47:22;;;;;;;12.30;3.92;;;20.20;46.40;;;;;;5031858;28;20048;-69
2021/04/24 07:50:26;;;;;;;7.32;4.10;;;20.10;47.50;;;;;;5032103;28;20052;-72
2021/04/24 07:53:31;;;;;;;8.18;4.28;;;20.20;47.30;;;;;;5031001;28;20045;-69
2021/04/24 07:56:34;;;;;;;6.75;3.95;;;19.80;46.30;;;;;;5031177;28;20048;-68
2021/04/24 07:59:39;;;;;;;7.20;3.58;;;19.80;47.40;;;;;;5031290;28;20072;-70
2021/04/24 08:02:43;;;;;;;7.57;3.85;;;19.90;47.40;;;;;;5031790;28;20045;-69
2021/04/24 08:05:47;;;;;;;8.38;4.15;;;20.00;46.70;;;;;;5031878;28;20040;-70
2021/04/24 08:08:51;;;;;;;8.10;3.88;;;19.90;47.90;;;;;;5031966;28;20040;-70
2021/04/24 08:11:55;;;;;;;7.60;3.88;;;19.90;47.70;;;;;;5031441;28;20080;-72
2021/04/24 08:15:00;;;;;;;8.93;4.40;;;20.00;47.90;;;;;;5030786;28;20056;-70
2021/04/24 08:18:05;;;;;;;13.68;4.70;;;20.40;48.10;;;;;;5031440;28;20052;-70
2021/04/24 08:21:09;;;;;;;9.45;4.53;;;20.70;47.60;;;;;;5031629;28;20044;-70
2021/04/24 08:24:13;;;;;;;6.80;4.10;;;20.50;46.60;;;;;;5031547;28;20044;-70
2021/04/24 08:27:17;;;;;;;4.82;3.78;;;20.40;47.40;;;;;;5031100;28;20045;-72
2021/04/24 08:30:21;;;;;;;8.25;3.80;;;20.20;46.70;;;;;;5031326;28;20511;-73
2021/04/24 08:33:25;;;;;;;8.13;3.75;;;20.40;46.00;;;;;;5030421;28;20100;-68
2021/04/24 08:36:30;;;;;;;5.63;3.95;;;20.70;47.00;;;;;;5031546;28;20421;-70
2021/04/24 08:39:35;;;;;;;6.22;4.25;;;20.70;47.20;;;;;;5031088;28;20052;-73
2021/04/24 08:42:40;;;;;;;8.70;4.28;;;20.60;46.10;;;;;;5031190;28;20068;-71
2021/04/24 08:45:44;;;;;;;6.53;3.72;;;20.50;46.40;;;;;;5031389;28;20040;-78
2021/04/24 08:48:48;;;;;;;7.65;4.38;;;20.40;45.90;;;;;;5032227;28;20056;-78
2021/04/24 08:51:53;;;;;;;5.78;4.00;;;20.40;47.00;;;;;;5030991;28;20049;-74
2021/04/24 08:54:57;;;;;;;9.57;4.75;;;20.50;47.30;;;;;;5030917;28;20036;-75
2021/04/24 08:58:04;;;;;;;8.18;3.90;;;20.70;46.90;;;;;;5031037;28;20065;-73
2021/04/24 09:01:09;;;;;;;5.72;4.05;;;20.80;45.40;;;;;;5030901;28;20053;-77
2021/04/24 09:04:13;;;;;;;9.55;4.32;;;20.70;44.80;;;;;;5030896;28;20040;-70
2021/04/24 09:07:17;;;;;;;6.95;3.92;;;20.70;46.60;;;;;;5031344;28;20061;-77
2021/04/24 09:10:23;;;;;;;8.02;4.40;;;20.50;46.70;;;;;;5030819;28;20044;-71
2021/04/24 09:13:28;;;;;;;7.70;4.50;;;20.60;46.70;;;;;;5030008;28;20061;-74
2021/04/24 09:16:33;;;;;;;10.07;4.82;;;20.60;47.10;;;;;;5031190;28;20044;-72
2021/04/24 09:19:38;;;;;;;9.07;4.78;;;20.60;48.60;;;;;;5031351;28;20057;-72
2021/04/24 09:22:42;;;;;;;8.63;4.57;;;20.50;47.80;;;;;;5031162;28;20045;-71
2021/04/24 09:25:50;;;;;;;9.32;4.22;;;20.40;49.10;;;;;;5030954;28;20052;-73
2021/04/24 09:29:00;;;;;;;7.97;4.25;;;20.60;50.10;;;;;;5030619;28;20496;-74
2021/04/24 09:32:21;;;;;;;8.95;4.47;;;20.70;49.50;;;;;;5030448;28;20053;-73
2021/04/24 09:35:26;;;;;;;7.60;4.72;;;20.80;49.20;;;;;;5030492;28;20045;-74
2021/04/24 09:38:33;;;;;;;9.40;4.35;;;20.70;49.80;;;;;;5030466;28;20040;-73
2021/04/24 09:41:40;;;;;;;7.93;4.40;;;20.60;50.70;;;;;;5029545;28;20238;-72
2021/04/24 09:44:44;;;;;;;9.43;4.28;;;20.70;50.10;;;;;;5029808;28;20523;-74
2021/04/24 09:47:48;;;;;;;11.68;5.15;;;20.60;50.50;;;;;;5033926;28;20052;-75
2021/04/24 09:50:54;;;;;;;6.70;4.60;;;20.60;50.80;;;;;;5033467;28;20056;-72
2021/04/24 09:53:58;;;;;;;7.20;4.88;;;20.70;50.90;;;;;;5034058;28;20044;-76
2021/04/24 09:57:08;;;;;;;7.97;4.15;;;20.80;50.00;;;;;;5034565;28;20044;-76
2021/04/24 10:00:15;;;;;;;12.80;4.87;;;20.90;49.40;;;;;;5034044;28;20060;-75
2021/04/24 10:03:39;;;;;;;11.73;5.05;;;20.70;50.80;;;;;;5033786;28;20048;-71
2021/04/24 10:06:44;;;;;;;8.80;4.85;;;20.80;50.30;;;;;;5032708;28;20045;-72
2021/04/24 10:09:48;;;;;;;11.00;4.40;;;20.90;51.40;;;;;;5033514;28;20040;-71
2021/04/24 10:12:57;;;;;;;12.75;4.50;;;21.10;49.20;;;;;;5032327;28;20064;-71
2021/04/24 10:16:01;;;;;;;7.00;4.70;;;21.30;48.90;;;;;;5032656;28;20044;-72
2021/04/24 10:19:09;;;;;;;11.50;4.38;;;21.30;48.60;;;;;;5033452;28;20117;-72
2021/04/24 10:22:16;;;;;;;8.70;4.22;;;21.30;49.10;;;;;;5033267;28;20417;-71
2021/04/24 10:25:21;;;;;;;7.25;3.92;;;21.30;49.10;;;;;;5033642;28;20064;-72
2021/04/24 10:28:25;;;;;;;9.00;4.75;;;21.40;48.80;;;;;;5033354;28;20033;-71
2021/04/24 10:31:31;;;;;;;10.98;4.68;;;21.50;48.80;;;;;;5033125;28;20057;-72
2021/04/24 10:34:35;;;;;;;12.73;4.72;;;21.50;49.00;;;;;;5033262;28;20493;-71
2021/04/24 10:37:39;;;;;;;6.50;4.30;;;21.60;47.60;;;;;;5033254;28;20060;-72
2021/04/24 10:40:47;;;;;;;13.00;4.55;;;21.60;47.50;;;;;;5033636;28;20072;-71
2021/04/24 10:44:06;;;;;;;6.80;4.40;;;21.40;48.00;;;;;;5032163;28;20044;-71
2021/04/24 10:47:10;;;;;;;8.25;4.30;;;21.30;47.70;;;;;;5032272;28;20049;-73
2021/04/24 10:50:36;;;;;;;7.03;4.63;;;21.30;47.80;;;;;;5033310;28;20068;-73
2021/04/24 10:53:39;;;;;;;8.05;4.43;;;21.20;49.10;;;;;;5032858;28;20051;-76
2021/04/24 10:56:43;;;;;;;9.63;4.18;;;21.10;47.40;;;;;;5031187;28;20033;-70
2021/04/24 10:59:54;;;;;;;11.18;3.60;;;21.20;47.50;;;;;;5032088;28;20052;-72
2021/04/24 11:03:00;;;;;;;10.60;4.57;;;21.30;47.40;;;;;;5032614;28;20068;-71
2021/04/24 11:06:19;;;;;;;8.70;4.78;;;21.30;47.80;;;;;;5032882;28;20048;-71
2021/04/24 11:09:23;;;;;;;8.00;4.40;;;21.20;46.50;;;;;;5031997;28;20048;-69
2021/04/24 11:12:33;;;;;;;15.00;4.10;;;21.20;46.50;;;;;;5031561;28;20508;-69
2021/04/24 11:15:39;;;;;;;6.80;4.18;;;21.10;45.90;;;;;;5031915;28;20040;-71
2021/04/24 11:18:45;;;;;;;8.18;4.38;;;21.10;47.40;;;;;;5032463;28;20508;-70
2021/04/24 11:21:50;;;;;;;7.75;4.80;;;21.30;47.10;;;;;;5032419;28;20048;-69
2021/04/24 11:24:54;;;;;;;7.05;3.90;;;21.40;46.90;;;;;;5032406;28;20507;-69
2021/04/24 11:28:13;;;;;;;8.30;4.35;;;21.40;47.80;;;;;;5031827;28;20040;-69
2021/04/24 11:31:17;;;;;;;8.60;4.20;;;21.30;46.70;;;;;;5032310;28;20056;-69
2021/04/24 11:34:45;;;;;;;7.68;4.40;;;21.20;47.10;;;;;;5031381;28;20041;-70
2021/04/24 11:37:50;;;;;;;6.15;4.35;;;21.30;48.30;;;;;;5031962;28;20052;-70
2021/04/24 11:41:29;;;;;;;11.25;4.95;;;21.40;48.20;;;;;;5032139;28;20052;-70
2021/04/24 11:44:33;;;;;;;5.10;3.60;;;21.40;48.60;;;;;;5031072;28;20040;-70
2021/04/24 11:47:43;;;;;;;5.88;4.47;;;21.40;46.60;;;;;;5031979;28;20044;-69
2021/04/24 11:50:47;;;;;;;9.38;4.20;;;21.50;46.60;;;;;;5032027;28;20048;-70
2021/04/24 11:53:52;;;;;;;13.70;4.60;;;21.40;47.70;;;;;;5032004;28;20052;-70
2021/04/24 11:56:58;;;;;;;8.10;4.57;;;21.50;48.00;;;;;;5031636;28;20044;-72
2021/04/24 12:00:06;;;;;;;6.40;4.15;;;21.50;47.90;;;;;;5031793;28;20513;-69
2021/04/24 12:03:11;;;;;;;8.45;4.07;;;21.40;47.40;;;;;;5031565;28;20108;-70
2021/04/24 12:06:40;;;;;;;11.93;4.25;;;21.30;46.90;;;;;;5031965;28;20404;-69
2021/04/24 12:09:59;;;;;;;6.72;3.97;;;21.30;46.40;;;;;;5030716;28;20052;-71
2021/04/24 12:13:11;;;;;;;10.02;3.65;;;21.30;47.50;;;;;;5031532;28;20065;-70
2021/04/24 12:16:15;;;;;;;8.07;3.78;;;21.40;46.60;;;;;;5030768;28;20044;-69
2021/04/24 12:19:21;;;;;;;15.30;3.92;;;21.40;45.00;;;;;;5031285;28;20060;-70
2021/04/24 12:22:26;;;;;;;7.88;3.45;;;21.30;45.20;;;;;;5031168;28;20040;-71
2021/04/24 12:25:33;;;;;;;6.63;3.50;;;21.40;44.90;;;;;;5031080;28;20052;-72
2021/04/24 12:28:43;;;;;;;7.68;3.92;;;21.40;45.10;;;;;;5031398;28;20037;-70
2021/04/24 12:31:47;;;;;;;6.30;3.28;;;21.50;45.20;;;;;;5031394;28;20064;-71
2021/04/24 12:34:51;;;;;;;6.22;3.80;;;21.50;43.80;;;;;;5030659;28;20045;-71
2021/04/24 12:38:02;;;;;;;5.38;3.50;;;21.40;43.40;;;;;;5031209;28;20057;-74
2021/04/24 12:41:07;;;;;;;7.70;3.70;;;21.20;43.50;;;;;;5031114;28;20044;-70
2021/04/24 12:44:28;;;;;;;7.50;3.58;;;21.20;44.20;;;;;;5031398;28;20052;-71
2021/04/24 12:47:35;;;;;;;4.07;2.85;;;21.40;41.90;;;;;;5031425;28;20052;-72
2021/04/24 12:50:41;;;;;;;8.38;2.90;;;21.20;41.50;;;;;;5031236;28;20045;-72
2021/04/24 12:53:47;;;;;;;9.98;3.03;;;21.20;42.40;;;;;;5031358;28;20496;-69
2021/04/24 12:57:19;;;;;;;4.95;2.70;;;21.20;43.00;;;;;;5031148;28;20056;-69
2021/04/24 13:00:32;;;;;;;5.22;2.80;;;21.20;42.10;;;;;;5031144;28;20056;-68
2021/04/24 13:03:37;;;;;;;6.90;2.92;;;21.20;42.10;;;;;;5030791;28;20037;-71
2021/04/24 13:06:53;;;;;;;3.95;2.75;;;21.30;40.90;;;;;;5031079;28;20052;-70
2021/04/24 13:09:58;;;;;;;6.93;2.70;;;21.20;41.30;;;;;;5031002;28;20040;-71
2021/04/24 13:13:03;;;;;;;7.57;2.88;;;21.20;42.70;;;;;;5031076;28;20080;-70
2021/04/24 13:16:09;;;;;;;11.30;3.50;;;21.30;41.60;;;;;;5018830;28;20056;-71
2021/04/24 13:19:13;;;;;;;5.75;3.38;;;21.30;41.80;;;;;;5030724;28;20060;-71
2021/04/24 13:22:35;;;;;;;7.55;3.22;;;21.20;41.50;;;;;;5034473;28;20492;-69
2021/04/24 13:25:39;;;;;;;11.02;2.95;;;21.20;41.80;;;;;;5034928;28;20651;-68
2021/04/24 13:28:43;;;;;;;8.05;3.22;;;21.20;39.80;;;;;;5034932;28;20535;-70
2021/04/24 13:31:59;;;;;;;8.88;2.72;;;21.20;40.80;;;;;;5034669;28;20381;-68
2021/04/24 13:35:03;;;;;;;10.63;2.80;;;21.10;41.20;;;;;;5034087;28;20056;-71
2021/04/24 13:38:07;;;;;;;7.57;3.08;;;21.10;41.70;;;;;;5033972;28;20048;-69
2021/04/24 13:41:17;;;;;;;7.40;3.70;;;21.20;42.70;;;;;;5034133;28;20053;-69
2021/04/24 13:44:21;;;;;;;7.75;3.00;;;21.30;42.00;;;;;;5034453;28;20040;-70
2021/04/24 13:47:26;;;;;;;5.95;2.80;;;21.40;40.70;;;;;;5034571;28;20396;-71
2021/04/24 13:50:30;;;;;;;7.25;2.47;;;21.30;41.60;;;;;;5034519;28;20048;-69
2021/04/24 13:53:34;;;;;;;6.38;2.63;;;21.30;41.70;;;;;;5034301;28;20044;-75
2021/04/24 13:56:38;;;;;;;4.82;2.60;;;21.30;41.80;;;;;;5034320;28;20045;-69
2021/04/24 13:59:44;;;;;;;8.75;2.40;;;21.40;41.30;;;;;;5033937;28;20056;-71
2021/04/24 14:02:48;;;;;;;10.02;3.03;;;21.30;40.40;;;;;;5034139;28;20056;-69
2021/04/24 14:05:52;;;;;;;7.78;2.10;;;21.30;42.00;;;;;;5034367;28;20397;-71
2021/04/24 14:08:57;;;;;;;8.48;2.75;;;21.40;40.90;;;;;;5034183;28;20389;-72
2021/04/24 14:12:01;;;;;;;5.40;2.47;;;21.30;39.60;;;;;;5032421;28;20052;-73
2021/04/24 14:15:06;;;;;;;7.70;2.53;;;21.30;41.00;;;;;;5033787;28;20401;-72
2021/04/24 14:18:12;;;;;;;7.35;2.60;;;21.20;41.10;;;;;;5033548;28;20044;-71
2021/04/24 14:21:16;;;;;;;7.30;2.55;;;21.20;40.20;;;;;;5033690;28;20057;-70
2021/04/24 14:24:21;;;;;;;5.78;2.72;;;21.30;39.00;;;;;;5033787;28;20056;-69
2021/04/24 14:27:25;;;;;;;9.00;3.10;;;21.20;40.20;;;;;;5033494;28;20040;-73
2021/04/24 14:30:30;;;;;;;8.48;2.65;;;21.20;38.20;;;;;;5033025;28;20551;-70
2021/04/24 14:33:34;;;;;;;11.18;3.50;;;21.10;37.90;;;;;;5033849;28;20508;-70
2021/04/24 14:36:38;;;;;;;6.43;2.30;;;21.10;39.00;;;;;;5033179;28;20049;-71
2021/04/24 14:39:42;;;;;;;4.43;2.50;;;21.10;39.20;;;;;;5031652;28;20076;-70
2021/04/24 14:42:46;;;;;;;6.28;2.50;;;21.10;39.20;;;;;;5032176;28;20041;-72
2021/04/24 14:45:51;;;;;;;5.30;2.80;;;21.20;39.70;;;;;;5032092;28;20045;-71
2021/04/24 14:48:55;;;;;;;5.72;2.75;;;21.20;40.60;;;;;;5033449;28;20057;-72
2021/04/24 14:51:59;;;;;;;6.05;2.80;;;21.30;40.40;;;;;;5033211;28;20045;-70
2021/04/24 14:55:07;;;;;;;4.88;2.60;;;21.20;40.60;;;;;;5032702;28;20044;-71
2021/04/24 14:58:13;;;;;;;3.25;2.50;;;21.10;40.80;;;;;;5032771;28;20041;-70
2021/04/24 15:01:17;;;;;;;3.88;2.33;;;21.10;40.10;;;;;;5020548;28;20056;-70
2021/04/24 15:04:21;;;;;;;8.43;2.72;;;21.10;40.80;;;;;;5031664;28;20041;-71
2021/04/24 15:07:25;;;;;;;6.18;2.30;;;21.10;40.10;;;;;;5032619;28;20044;-70
2021/04/24 15:10:31;;;;;;;4.90;2.80;;;21.10;40.50;;;;;;5032703;28;20044;-70
2021/04/24 15:13:35;;;;;;;5.55;2.60;;;21.10;40.00;;;;;;5032813;28;20068;-71
2021/04/24 15:16:40;;;;;;;5.60;2.55;;;21.10;40.30;;;;;;5031524;28;20048;-69
2021/04/24 15:19:44;;;;;;;4.32;2.50;;;21.10;39.50;;;;;;5031934;28;20064;-71
2021/04/24 15:22:48;;;;;;;5.50;2.83;;;21.10;40.30;;;;;;5031820;28;20048;-70
2021/04/24 15:25:53;;;;;;;4.43;2.55;;;21.10;39.80;;;;;;5032179;28;20044;-71
2021/04/24 15:29:05;;;;;;;6.35;2.83;;;21.10;40.40;;;;;;5031652;28;20397;-71
2021/04/24 15:32:10;;;;;;;5.68;2.83;;;21.10;39.80;;;;;;5032147;28;20057;-72
2021/04/24 15:35:14;;;;;;;9.27;2.83;;;21.10;39.70;;;;;;5031835;28;20060;-70
2021/04/24 15:38:20;;;;;;;8.02;2.85;;;21.10;40.10;;;;;;5032053;28;20048;-70
2021/04/24 15:41:24;;;;;;;8.88;2.83;;;21.10;39.90;;;;;;5019616;28;20044;-70
2021/04/24 15:44:28;;;;;;;8.68;3.08;;;21.10;40.50;;;;;;5030625;28;20048;-70
2021/04/24 15:47:32;;;;;;;6.72;2.50;;;21.00;40.50;;;;;;5031661;28;20044;-71
2021/04/24 15:50:37;;;;;;;8.52;2.75;;;20.90;40.10;;;;;;5030955;28;20044;-71
2021/04/24 15:53:41;;;;;;;4.95;2.83;;;20.90;40.40;;;;;;5031198;28;20044;-71
2021/04/24 15:56:45;;;;;;;7.03;2.53;;;20.90;40.30;;;;;;5031609;28;20044;-73
2021/04/24 15:59:49;;;;;;;6.85;2.67;;;20.90;41.10;;;;;;5030197;28;20400;-73
2021/04/24 16:02:53;;;;;;;4.97;2.50;;;21.00;40.80;;;;;;5031069;28;20048;-74
2021/04/24 16:05:57;;;;;;;6.10;2.80;;;20.90;39.90;;;;;;5031122;28;20052;-71